sensor_id;sensor_type;location;lat;lon;timestamp;P1;durP1;ratioP1;P2;durP2;ratioP2
56329;SDS011;42236;48.058;10.632;2023-04-24T00:01:58;0.23;;;0.23;;
56329;SDS011;42236;48.058;10.632;2023-04-24T00:04:43;0.20;;;0.20;;
56329;SDS011;42236;48.058;10.632;2023-04-24T00:07:31;0.30;;;0.20;;
56329;SDS011;42236;48.058;10.632;2023-04-24T00:10:16;1.97;;;0.20;;
56329;SDS011;42236;48.058;10.632;2023-04-24T00:13:02;0.20;;;0.20;;
56329;SDS011;42236;48.058;10.632;2023-04-24T00:15:48;0.20;;;0.20;;
56329;SDS011;42236;48.058;10.632;2023-04-24T00:18:33;0.20;;;0.20;;
56329;SDS011;42236;48.058;10.632;2023-04-24T00:21:19;0.20;;;0.20;;
56329;SDS011;42236;48.058;10.632;2023-04-24T00:24:05;0.30;;;0.30;;
56329;SDS011;42236;48.058;10.632;2023-04-24T00:26:51;0.97;;;0.57;;
56329;SDS011;42236;48.058;10.632;2023-04-24T00:29:37;0.33;;;0.30;;
56329;SDS011;42236;48.058;10.632;2023-04-24T00:32:22;0.20;;;0.20;;
56329;SDS011;42236;48.058;10.632;2023-04-24T00:35:08;1.87;;;0.30;;
56329;SDS011;42236;48.058;10.632;2023-04-24T00:37:54;0.93;;;0.30;;
56329;SDS011;42236;48.058;10.632;2023-04-24T00:40:40;0.20;;;0.20;;
56329;SDS011;42236;48.058;10.632;2023-04-24T00:43:25;0.30;;;0.20;;
56329;SDS011;42236;48.058;10.632;2023-04-24T00:46:11;1.27;;;0.30;;
56329;SDS011;42236;48.058;10.632;2023-04-24T00:48:58;0.30;;;0.30;;
56329;SDS011;42236;48.058;10.632;2023-04-24T00:51:44;0.80;;;0.20;;
56329;SDS011;42236;48.058;10.632;2023-04-24T00:54:30;0.20;;;0.20;;
56329;SDS011;42236;48.058;10.632;2023-04-24T00:57:16;0.37;;;0.20;;
56329;SDS011;42236;48.058;10.632;2023-04-24T01:00:04;1.50;;;0.30;;
56329;SDS011;42236;48.058;10.632;2023-04-24T01:02:51;0.67;;;0.30;;
56329;SDS011;42236;48.058;10.632;2023-04-24T01:05:37;0.27;;;0.27;;
56329;SDS011;42236;48.058;10.632;2023-04-24T01:08:26;0.20;;;0.20;;
56329;SDS011;42236;48.058;10.632;2023-04-24T01:11:13;0.30;;;0.20;;
56329;SDS011;42236;48.058;10.632;2023-04-24T01:13:59;0.20;;;0.20;;
56329;SDS011;42236;48.058;10.632;2023-04-24T01:16:46;0.77;;;0.33;;
56329;SDS011;42236;48.058;10.632;2023-04-24T01:19:31;0.40;;;0.30;;
56329;SDS011;42236;48.058;10.632;2023-04-24T01:22:17;1.30;;;0.30;;
56329;SDS011;42236;48.058;10.632;2023-04-24T01:25:03;0.73;;;0.30;;
56329;SDS011;42236;48.058;10.632;2023-04-24T01:27:49;0.77;;;0.30;;
56329;SDS011;42236;48.058;10.632;2023-04-24T01:30:35;0.30;;;0.30;;
56329;SDS011;42236;48.058;10.632;2023-04-24T01:33:21;0.30;;;0.30;;
56329;SDS011;42236;48.058;10.632;2023-04-24T01:36:07;0.40;;;0.40;;
56329;SDS011;42236;48.058;10.632;2023-04-24T01:38:55;0.27;;;0.27;;
56329;SDS011;42236;48.058;10.632;2023-04-24T01:41:41;0.20;;;0.20;;
56329;SDS011;42236;48.058;10.632;2023-04-24T01:44:27;0.40;;;0.40;;
56329;SDS011;42236;48.058;10.632;2023-04-24T01:47:13;0.30;;;0.30;;
56329;SDS011;42236;48.058;10.632;2023-04-24T01:49:59;1.33;;;0.40;;
56329;SDS011;42236;48.058;10.632;2023-04-24T01:52:44;0.20;;;0.20;;
56329;SDS011;42236;48.058;10.632;2023-04-24T01:55:30;0.27;;;0.27;;
56329;SDS011;42236;48.058;10.632;2023-04-24T01:58:16;0.33;;;0.33;;
56329;SDS011;42236;48.058;10.632;2023-04-24T02:01:02;0.20;;;0.20;;
56329;SDS011;42236;48.058;10.632;2023-04-24T02:03:48;0.20;;;0.20;;
56329;SDS011;42236;48.058;10.632;2023-04-24T02:06:34;1.37;;;0.43;;
56329;SDS011;42236;48.058;10.632;2023-04-24T02:09:19;0.20;;;0.20;;
56329;SDS011;42236;48.058;10.632;2023-04-24T02:12:05;0.30;;;0.30;;
56329;SDS011;42236;48.058;10.632;2023-04-24T02:14:51;0.33;;;0.30;;
56329;SDS011;42236;48.058;10.632;2023-04-24T02:17:37;0.30;;;0.30;;
56329;SDS011;42236;48.058;10.632;2023-04-24T02:20:23;0.43;;;0.43;;
56329;SDS011;42236;48.058;10.632;2023-04-24T02:23:09;0.37;;;0.30;;
56329;SDS011;42236;48.058;10.632;2023-04-24T02:25:55;2.43;;;0.50;;
56329;SDS011;42236;48.058;10.632;2023-04-24T02:28:41;0.50;;;0.40;;
56329;SDS011;42236;48.058;10.632;2023-04-24T02:31:26;0.23;;;0.23;;
56329;SDS011;42236;48.058;10.632;2023-04-24T02:34:12;2.10;;;0.40;;
56329;SDS011;42236;48.058;10.632;2023-04-24T02:36:58;0.50;;;0.30;;
56329;SDS011;42236;48.058;10.632;2023-04-24T02:39:43;0.47;;;0.30;;
56329;SDS011;42236;48.058;10.632;2023-04-24T02:42:29;0.30;;;0.30;;
56329;SDS011;42236;48.058;10.632;2023-04-24T02:45:15;0.90;;;0.30;;
56329;SDS011;42236;48.058;10.632;2023-04-24T02:48:01;1.23;;;0.20;;
56329;SDS011;42236;48.058;10.632;2023-04-24T02:50:46;0.30;;;0.30;;
56329;SDS011;42236;48.058;10.632;2023-04-24T02:53:33;0.20;;;0.20;;
56329;SDS011;42236;48.058;10.632;2023-04-24T02:56:18;0.57;;;0.30;;
56329;SDS011;42236;48.058;10.632;2023-04-24T02:59:04;1.23;;;0.40;;
56329;SDS011;42236;48.058;10.632;2023-04-24T03:01:50;0.47;;;0.30;;
56329;SDS011;42236;48.058;10.632;2023-04-24T03:04:35;0.20;;;0.20;;
56329;SDS011;42236;48.058;10.632;2023-04-24T03:07:21;0.27;;;0.27;;
56329;SDS011;42236;48.058;10.632;2023-04-24T03:10:09;0.30;;;0.20;;
56329;SDS011;42236;48.058;10.632;2023-04-24T03:12:55;0.30;;;0.30;;
56329;SDS011;42236;48.058;10.632;2023-04-24T03:15:40;0.20;;;0.20;;
56329;SDS011;42236;48.058;10.632;2023-04-24T03:18:26;3.50;;;0.30;;
56329;SDS011;42236;48.058;10.632;2023-04-24T03:21:11;0.40;;;0.20;;
56329;SDS011;42236;48.058;10.632;2023-04-24T03:23:57;0.20;;;0.20;;
56329;SDS011;42236;48.058;10.632;2023-04-24T03:26:43;1.73;;;0.30;;
56329;SDS011;42236;48.058;10.632;2023-04-24T03:29:28;0.87;;;0.20;;
56329;SDS011;42236;48.058;10.632;2023-04-24T03:32:14;1.90;;;0.30;;
56329;SDS011;42236;48.058;10.632;2023-04-24T03:35:00;0.20;;;0.20;;
56329;SDS011;42236;48.058;10.632;2023-04-24T03:37:46;0.37;;;0.37;;
56329;SDS011;42236;48.058;10.632;2023-04-24T03:40:31;0.47;;;0.30;;
56329;SDS011;42236;48.058;10.632;2023-04-24T03:43:18;1.43;;;0.37;;
56329;SDS011;42236;48.058;10.632;2023-04-24T03:46:05;0.27;;;0.27;;
56329;SDS011;42236;48.058;10.632;2023-04-24T03:48:50;1.30;;;0.20;;
56329;SDS011;42236;48.058;10.632;2023-04-24T03:51:36;0.20;;;0.20;;
56329;SDS011;42236;48.058;10.632;2023-04-24T03:54:22;0.40;;;0.20;;
56329;SDS011;42236;48.058;10.632;2023-04-24T03:57:07;0.30;;;0.30;;
56329;SDS011;42236;48.058;10.632;2023-04-24T03:59:53;0.30;;;0.30;;
56329;SDS011;42236;48.058;10.632;2023-04-24T04:02:39;0.20;;;0.20;;
56329;SDS011;42236;48.058;10.632;2023-04-24T04:05:24;0.23;;;0.20;;
56329;SDS011;42236;48.058;10.632;2023-04-24T04:08:10;0.20;;;0.20;;
56329;SDS011;42236;48.058;10.632;2023-04-24T04:10:56;0.30;;;0.30;;
56329;SDS011;42236;48.058;10.632;2023-04-24T04:13:42;0.20;;;0.20;;
56329;SDS011;42236;48.058;10.632;2023-04-24T04:16:27;0.70;;;0.20;;
56329;SDS011;42236;48.058;10.632;2023-04-24T04:19:13;0.20;;;0.20;;
56329;SDS011;42236;48.058;10.632;2023-04-24T04:21:58;0.20;;;0.20;;
56329;SDS011;42236;48.058;10.632;2023-04-24T04:24:44;1.60;;;0.20;;
56329;SDS011;42236;48.058;10.632;2023-04-24T04:27:31;0.20;;;0.20;;
56329;SDS011;42236;48.058;10.632;2023-04-24T04:30:17;0.20;;;0.20;;
56329;SDS011;42236;48.058;10.632;2023-04-24T04:33:03;0.30;;;0.30;;
56329;SDS011;42236;48.058;10.632;2023-04-24T04:35:49;0.87;;;0.30;;
56329;SDS011;42236;48.058;10.632;2023-04-24T04:38:35;0.30;;;0.30;;
56329;SDS011;42236;48.058;10.632;2023-04-24T04:41:20;0.30;;;0.20;;
56329;SDS011;42236;48.058;10.632;2023-04-24T04:44:06;0.20;;;0.20;;
56329;SDS011;42236;48.058;10.632;2023-04-24T04:46:53;0.20;;;0.20;;
56329;SDS011;42236;48.058;10.632;2023-04-24T04:49:41;0.10;;;0.10;;
56329;SDS011;42236;48.058;10.632;2023-04-24T04:52:28;0.63;;;0.40;;
56329;SDS011;42236;48.058;10.632;2023-04-24T04:55:14;0.10;;;0.10;;
56329;SDS011;42236;48.058;10.632;2023-04-24T04:58:00;0.20;;;0.20;;
56329;SDS011;42236;48.058;10.632;2023-04-24T05:00:46;0.53;;;0.20;;
56329;SDS011;42236;48.058;10.632;2023-04-24T05:03:31;0.20;;;0.20;;
56329;SDS011;42236;48.058;10.632;2023-04-24T05:06:17;0.13;;;0.13;;
56329;SDS011;42236;48.058;10.632;2023-04-24T05:09:03;0.20;;;0.20;;
56329;SDS011;42236;48.058;10.632;2023-04-24T05:11:49;1.47;;;0.20;;
56329;SDS011;42236;48.058;10.632;2023-04-24T05:14:35;0.20;;;0.20;;
56329;SDS011;42236;48.058;10.632;2023-04-24T05:17:20;1.10;;;0.20;;
56329;SDS011;42236;48.058;10.632;2023-04-24T05:20:06;0.20;;;0.20;;
56329;SDS011;42236;48.058;10.632;2023-04-24T05:22:52;0.30;;;0.30;;
56329;SDS011;42236;48.058;10.632;2023-04-24T05:25:38;0.10;;;0.10;;
56329;SDS011;42236;48.058;10.632;2023-04-24T05:28:25;0.50;;;0.20;;
56329;SDS011;42236;48.058;10.632;2023-04-24T05:31:13;0.60;;;0.10;;
56329;SDS011;42236;48.058;10.632;2023-04-24T05:33:59;0.20;;;0.20;;
56329;SDS011;42236;48.058;10.632;2023-04-24T05:36:44;0.20;;;0.20;;
56329;SDS011;42236;48.058;10.632;2023-04-24T05:39:30;0.13;;;0.13;;
56329;SDS011;42236;48.058;10.632;2023-04-24T05:42:16;0.20;;;0.20;;
56329;SDS011;42236;48.058;10.632;2023-04-24T05:45:02;0.17;;;0.17;;
56329;SDS011;42236;48.058;10.632;2023-04-24T05:47:48;0.13;;;0.13;;
56329;SDS011;42236;48.058;10.632;2023-04-24T05:50:33;0.20;;;0.20;;
56329;SDS011;42236;48.058;10.632;2023-04-24T05:53:19;1.40;;;0.10;;
56329;SDS011;42236;48.058;10.632;2023-04-24T05:56:05;0.17;;;0.17;;
56329;SDS011;42236;48.058;10.632;2023-04-24T05:58:50;0.70;;;0.30;;
56329;SDS011;42236;48.058;10.632;2023-04-24T06:01:36;0.17;;;0.17;;
56329;SDS011;42236;48.058;10.632;2023-04-24T06:04:22;1.07;;;0.20;;
56329;SDS011;42236;48.058;10.632;2023-04-24T06:07:08;0.20;;;0.20;;
56329;SDS011;42236;48.058;10.632;2023-04-24T06:09:53;0.13;;;0.13;;
56329;SDS011;42236;48.058;10.632;2023-04-24T06:12:39;0.13;;;0.13;;
56329;SDS011;42236;48.058;10.632;2023-04-24T06:15:25;0.20;;;0.20;;
56329;SDS011;42236;48.058;10.632;2023-04-24T06:18:11;1.53;;;0.17;;
56329;SDS011;42236;48.058;10.632;2023-04-24T06:20:57;0.10;;;0.10;;
56329;SDS011;42236;48.058;10.632;2023-04-24T06:23:43;0.20;;;0.20;;
56329;SDS011;42236;48.058;10.632;2023-04-24T06:26:29;1.17;;;0.20;;
56329;SDS011;42236;48.058;10.632;2023-04-24T06:29:15;0.10;;;0.10;;
56329;SDS011;42236;48.058;10.632;2023-04-24T06:32:00;2.73;;;0.20;;
56329;SDS011;42236;48.058;10.632;2023-04-24T06:34:46;1.47;;;0.20;;
56329;SDS011;42236;48.058;10.632;2023-04-24T06:37:32;0.10;;;0.10;;
56329;SDS011;42236;48.058;10.632;2023-04-24T06:40:17;0.77;;;0.10;;
56329;SDS011;42236;48.058;10.632;2023-04-24T06:43:06;0.17;;;0.17;;
56329;SDS011;42236;48.058;10.632;2023-04-24T06:45:52;0.10;;;0.10;;
56329;SDS011;42236;48.058;10.632;2023-04-24T06:48:38;0.13;;;0.10;;
56329;SDS011;42236;48.058;10.632;2023-04-24T06:51:25;0.13;;;0.13;;
56329;SDS011;42236;48.058;10.632;2023-04-24T06:54:11;0.40;;;0.20;;
56329;SDS011;42236;48.058;10.632;2023-04-24T06:56:57;0.10;;;0.10;;
56329;SDS011;42236;48.058;10.632;2023-04-24T06:59:42;0.20;;;0.20;;
56329;SDS011;42236;48.058;10.632;2023-04-24T07:02:28;0.10;;;0.10;;
56329;SDS011;42236;48.058;10.632;2023-04-24T07:05:14;0.20;;;0.20;;
56329;SDS011;42236;48.058;10.632;2023-04-24T07:08:00;0.20;;;0.20;;
56329;SDS011;42236;48.058;10.632;2023-04-24T07:10:47;0.20;;;0.20;;
56329;SDS011;42236;48.058;10.632;2023-04-24T07:13:34;0.10;;;0.10;;
56329;SDS011;42236;48.058;10.632;2023-04-24T07:16:20;0.17;;;0.10;;
56329;SDS011;42236;48.058;10.632;2023-04-24T07:19:06;0.20;;;0.20;;
56329;SDS011;42236;48.058;10.632;2023-04-24T07:21:52;0.10;;;0.10;;
56329;SDS011;42236;48.058;10.632;2023-04-24T07:24:38;0.20;;;0.20;;
56329;SDS011;42236;48.058;10.632;2023-04-24T07:27:26;0.10;;;0.10;;
56329;SDS011;42236;48.058;10.632;2023-04-24T07:30:11;0.20;;;0.20;;
56329;SDS011;42236;48.058;10.632;2023-04-24T07:32:57;0.30;;;0.30;;
56329;SDS011;42236;48.058;10.632;2023-04-24T07:35:43;2.10;;;0.30;;
56329;SDS011;42236;48.058;10.632;2023-04-24T07:38:29;0.30;;;0.30;;
56329;SDS011;42236;48.058;10.632;2023-04-24T07:41:15;0.30;;;0.30;;
56329;SDS011;42236;48.058;10.632;2023-04-24T07:44:01;0.67;;;0.40;;
56329;SDS011;42236;48.058;10.632;2023-04-24T07:46:46;0.53;;;0.53;;
56329;SDS011;42236;48.058;10.632;2023-04-24T07:49:32;0.40;;;0.40;;
56329;SDS011;42236;48.058;10.632;2023-04-24T07:52:20;0.67;;;0.50;;
56329;SDS011;42236;48.058;10.632;2023-04-24T07:55:05;0.57;;;0.57;;
56329;SDS011;42236;48.058;10.632;2023-04-24T07:57:52;0.73;;;0.70;;
56329;SDS011;42236;48.058;10.632;2023-04-24T08:00:38;1.67;;;0.80;;
56329;SDS011;42236;48.058;10.632;2023-04-24T08:03:23;1.87;;;0.70;;
56329;SDS011;42236;48.058;10.632;2023-04-24T08:06:10;0.70;;;0.70;;
56329;SDS011;42236;48.058;10.632;2023-04-24T08:08:56;0.60;;;0.60;;
56329;SDS011;42236;48.058;10.632;2023-04-24T08:11:42;2.27;;;0.83;;
56329;SDS011;42236;48.058;10.632;2023-04-24T08:14:29;0.93;;;0.70;;
56329;SDS011;42236;48.058;10.632;2023-04-24T08:17:14;0.90;;;0.70;;
56329;SDS011;42236;48.058;10.632;2023-04-24T08:20:05;1.03;;;0.67;;
56329;SDS011;42236;48.058;10.632;2023-04-24T08:22:51;0.67;;;0.67;;
56329;SDS011;42236;48.058;10.632;2023-04-24T08:25:37;0.67;;;0.67;;
56329;SDS011;42236;48.058;10.632;2023-04-24T08:28:22;0.50;;;0.50;;
56329;SDS011;42236;48.058;10.632;2023-04-24T08:31:08;1.27;;;0.60;;
56329;SDS011;42236;48.058;10.632;2023-04-24T08:33:54;0.60;;;0.60;;
56329;SDS011;42236;48.058;10.632;2023-04-24T08:36:39;0.60;;;0.60;;
56329;SDS011;42236;48.058;10.632;2023-04-24T08:39:26;0.50;;;0.50;;
56329;SDS011;42236;48.058;10.632;2023-04-24T08:42:11;1.83;;;0.60;;
56329;SDS011;42236;48.058;10.632;2023-04-24T08:44:58;0.77;;;0.60;;
56329;SDS011;42236;48.058;10.632;2023-04-24T08:47:44;0.87;;;0.73;;
56329;SDS011;42236;48.058;10.632;2023-04-24T08:50:30;0.50;;;0.50;;
56329;SDS011;42236;48.058;10.632;2023-04-24T08:53:17;0.47;;;0.47;;
56329;SDS011;42236;48.058;10.632;2023-04-24T08:56:03;0.60;;;0.60;;
56329;SDS011;42236;48.058;10.632;2023-04-24T08:58:50;1.43;;;0.60;;
56329;SDS011;42236;48.058;10.632;2023-04-24T09:01:37;0.50;;;0.50;;
56329;SDS011;42236;48.058;10.632;2023-04-24T09:04:25;1.40;;;0.70;;
56329;SDS011;42236;48.058;10.632;2023-04-24T09:07:11;0.68;;;0.50;;
56329;SDS011;42236;48.058;10.632;2023-04-24T09:09:57;0.60;;;0.50;;
56329;SDS011;42236;48.058;10.632;2023-04-24T09:12:44;0.60;;;0.60;;
56329;SDS011;42236;48.058;10.632;2023-04-24T09:15:30;0.50;;;0.50;;
56329;SDS011;42236;48.058;10.632;2023-04-24T09:18:17;1.00;;;0.60;;
56329;SDS011;42236;48.058;10.632;2023-04-24T09:21:04;1.67;;;0.70;;
56329;SDS011;42236;48.058;10.632;2023-04-24T09:23:59;0.50;;;0.50;;
56329;SDS011;42236;48.058;10.632;2023-04-24T09:26:48;1.45;;;0.85;;
56329;SDS011;42236;48.058;10.632;2023-04-24T09:29:34;0.52;;;0.47;;
56329;SDS011;42236;48.058;10.632;2023-04-24T09:32:21;0.47;;;0.47;;
56329;SDS011;42236;48.058;10.632;2023-04-24T09:35:08;1.00;;;0.50;;
56329;SDS011;42236;48.058;10.632;2023-04-24T09:37:56;0.20;;;0.20;;
56329;SDS011;42236;48.058;10.632;2023-04-24T09:40:43;1.90;;;0.27;;
56329;SDS011;42236;48.058;10.632;2023-04-24T09:43:29;1.33;;;0.20;;
56329;SDS011;42236;48.058;10.632;2023-04-24T09:46:14;0.23;;;0.23;;
56329;SDS011;42236;48.058;10.632;2023-04-24T09:49:13;1.70;;;0.50;;
56329;SDS011;42236;48.058;10.632;2023-04-24T09:52:07;0.40;;;0.40;;
56329;SDS011;42236;48.058;10.632;2023-04-24T09:54:55;0.30;;;0.30;;
56329;SDS011;42236;48.058;10.632;2023-04-24T09:57:50;0.67;;;0.30;;
56329;SDS011;42236;48.058;10.632;2023-04-24T10:00:37;0.20;;;0.20;;
56329;SDS011;42236;48.058;10.632;2023-04-24T10:03:24;1.40;;;0.30;;
56329;SDS011;42236;48.058;10.632;2023-04-24T10:06:11;1.23;;;0.30;;
56329;SDS011;42236;48.058;10.632;2023-04-24T10:08:58;0.40;;;0.40;;
56329;SDS011;42236;48.058;10.632;2023-04-24T10:11:45;1.93;;;0.43;;
56329;SDS011;42236;48.058;10.632;2023-04-24T10:14:32;0.30;;;0.30;;
56329;SDS011;42236;48.058;10.632;2023-04-24T10:17:17;0.97;;;0.60;;
56329;SDS011;42236;48.058;10.632;2023-04-24T10:20:05;0.60;;;0.50;;
56329;SDS011;42236;48.058;10.632;2023-04-24T10:22:52;2.30;;;0.47;;
56329;SDS011;42236;48.058;10.632;2023-04-24T10:25:39;0.73;;;0.40;;
56329;SDS011;42236;48.058;10.632;2023-04-24T10:28:24;0.53;;;0.53;;
56329;SDS011;42236;48.058;10.632;2023-04-24T10:31:13;0.60;;;0.60;;
56329;SDS011;42236;48.058;10.632;2023-04-24T10:34:00;2.00;;;0.57;;
56329;SDS011;42236;48.058;10.632;2023-04-24T10:36:49;2.30;;;0.70;;
56329;SDS011;42236;48.058;10.632;2023-04-24T10:39:41;0.60;;;0.53;;
56329;SDS011;42236;48.058;10.632;2023-04-24T10:42:27;1.00;;;0.60;;
56329;SDS011;42236;48.058;10.632;2023-04-24T10:45:22;0.70;;;0.70;;
56329;SDS011;42236;48.058;10.632;2023-04-24T10:48:09;0.57;;;0.50;;
56329;SDS011;42236;48.058;10.632;2023-04-24T10:50:58;0.50;;;0.50;;
56329;SDS011;42236;48.058;10.632;2023-04-24T10:53:44;0.90;;;0.50;;
56329;SDS011;42236;48.058;10.632;2023-04-24T10:56:30;0.70;;;0.50;;
56329;SDS011;42236;48.058;10.632;2023-04-24T10:59:25;0.53;;;0.53;;
56329;SDS011;42236;48.058;10.632;2023-04-24T11:02:20;0.63;;;0.60;;
56329;SDS011;42236;48.058;10.632;2023-04-24T11:05:21;0.70;;;0.43;;
56329;SDS011;42236;48.058;10.632;2023-04-24T11:08:21;0.60;;;0.60;;
56329;SDS011;42236;48.058;10.632;2023-04-24T11:11:12;3.30;;;0.47;;
56329;SDS011;42236;48.058;10.632;2023-04-24T11:16:52;0.40;;;0.40;;
56329;SDS011;42236;48.058;10.632;2023-04-24T11:19:38;0.40;;;0.40;;
56329;SDS011;42236;48.058;10.632;2023-04-24T11:22:24;0.47;;;0.47;;
56329;SDS011;42236;48.058;10.632;2023-04-24T11:25:16;1.40;;;0.40;;
56329;SDS011;42236;48.058;10.632;2023-04-24T11:28:03;0.50;;;0.43;;
56329;SDS011;42236;48.058;10.632;2023-04-24T11:30:50;0.85;;;0.40;;
56329;SDS011;42236;48.058;10.632;2023-04-24T11:33:36;0.30;;;0.30;;
56329;SDS011;42236;48.058;10.632;2023-04-24T11:36:22;1.90;;;0.40;;
56329;SDS011;42236;48.058;10.632;2023-04-24T11:39:08;2.17;;;0.50;;
56329;SDS011;42236;48.058;10.632;2023-04-24T11:41:53;0.57;;;0.57;;
56329;SDS011;42236;48.058;10.632;2023-04-24T11:44:47;0.35;;;0.28;;
56329;SDS011;42236;48.058;10.632;2023-04-24T11:47:40;0.57;;;0.50;;
56329;SDS011;42236;48.058;10.632;2023-04-24T11:50:26;1.17;;;0.38;;
56329;SDS011;42236;48.058;10.632;2023-04-24T11:53:18;1.27;;;0.50;;
56329;SDS011;42236;48.058;10.632;2023-04-24T11:56:05;0.40;;;0.40;;
56329;SDS011;42236;48.058;10.632;2023-04-24T11:58:52;0.40;;;0.30;;
56329;SDS011;42236;48.058;10.632;2023-04-24T12:01:45;1.58;;;0.40;;
56329;SDS011;42236;48.058;10.632;2023-04-24T12:04:38;0.90;;;0.35;;
56329;SDS011;42236;48.058;10.632;2023-04-24T12:07:27;0.50;;;0.43;;
56329;SDS011;42236;48.058;10.632;2023-04-24T12:10:13;0.60;;;0.40;;
56329;SDS011;42236;48.058;10.632;2023-04-24T12:12:59;0.30;;;0.30;;
56329;SDS011;42236;48.058;10.632;2023-04-24T12:15:45;0.68;;;0.40;;
56329;SDS011;42236;48.058;10.632;2023-04-24T12:18:31;2.67;;;0.60;;
56329;SDS011;42236;48.058;10.632;2023-04-24T12:21:21;0.30;;;0.30;;
56329;SDS011;42236;48.058;10.632;2023-04-24T12:24:07;0.40;;;0.40;;
56329;SDS011;42236;48.058;10.632;2023-04-24T12:26:53;0.82;;;0.65;;
56329;SDS011;42236;48.058;10.632;2023-04-24T12:29:56;0.60;;;0.60;;
56329;SDS011;42236;48.058;10.632;2023-04-24T12:32:43;0.50;;;0.50;;
56329;SDS011;42236;48.058;10.632;2023-04-24T12:35:31;0.80;;;0.40;;
56329;SDS011;42236;48.058;10.632;2023-04-24T12:38:21;0.85;;;0.45;;
56329;SDS011;42236;48.058;10.632;2023-04-24T12:41:10;2.53;;;0.40;;
56329;SDS011;42236;48.058;10.632;2023-04-24T12:43:57;7.15;;;0.60;;
56329;SDS011;42236;48.058;10.632;2023-04-24T12:46:43;0.60;;;0.60;;
56329;SDS011;42236;48.058;10.632;2023-04-24T12:49:29;0.55;;;0.45;;
56329;SDS011;42236;48.058;10.632;2023-04-24T12:52:19;1.63;;;0.50;;
56329;SDS011;42236;48.058;10.632;2023-04-24T12:55:11;2.45;;;1.05;;
56329;SDS011;42236;48.058;10.632;2023-04-24T12:57:57;0.98;;;0.60;;
56329;SDS011;42236;48.058;10.632;2023-04-24T13:00:43;0.50;;;0.50;;
56329;SDS011;42236;48.058;10.632;2023-04-24T13:03:31;0.75;;;0.50;;
56329;SDS011;42236;48.058;10.632;2023-04-24T13:06:19;0.50;;;0.50;;
56329;SDS011;42236;48.058;10.632;2023-04-24T13:09:04;0.50;;;0.50;;
56329;SDS011;42236;48.058;10.632;2023-04-24T13:11:50;3.08;;;0.40;;
56329;SDS011;42236;48.058;10.632;2023-04-24T13:14:36;0.30;;;0.30;;
56329;SDS011;42236;48.058;10.632;2023-04-24T13:17:22;0.40;;;0.30;;
56329;SDS011;42236;48.058;10.632;2023-04-24T13:20:08;0.65;;;0.50;;
56329;SDS011;42236;48.058;10.632;2023-04-24T13:22:53;0.40;;;0.40;;
56329;SDS011;42236;48.058;10.632;2023-04-24T13:25:39;0.95;;;0.50;;
56329;SDS011;42236;48.058;10.632;2023-04-24T13:28:25;1.30;;;0.43;;
56329;SDS011;42236;48.058;10.632;2023-04-24T13:31:10;2.13;;;0.50;;
56329;SDS011;42236;48.058;10.632;2023-04-24T13:33:56;9.57;;;0.80;;
56329;SDS011;42236;48.058;10.632;2023-04-24T13:36:42;0.40;;;0.40;;
56329;SDS011;42236;48.058;10.632;2023-04-24T13:39:27;0.50;;;0.50;;
56329;SDS011;42236;48.058;10.632;2023-04-24T13:42:13;0.68;;;0.47;;
56329;SDS011;42236;48.058;10.632;2023-04-24T13:44:59;2.30;;;0.70;;
56329;SDS011;42236;48.058;10.632;2023-04-24T13:47:45;0.60;;;0.50;;
56329;SDS011;42236;48.058;10.632;2023-04-24T13:50:30;0.63;;;0.63;;
56329;SDS011;42236;48.058;10.632;2023-04-24T13:53:16;0.60;;;0.40;;
56329;SDS011;42236;48.058;10.632;2023-04-24T13:56:02;1.40;;;0.40;;
56329;SDS011;42236;48.058;10.632;2023-04-24T13:58:48;1.05;;;0.70;;
56329;SDS011;42236;48.058;10.632;2023-04-24T14:01:34;0.30;;;0.30;;
56329;SDS011;42236;48.058;10.632;2023-04-24T14:04:20;0.65;;;0.30;;
56329;SDS011;42236;48.058;10.632;2023-04-24T14:07:05;0.40;;;0.40;;
56329;SDS011;42236;48.058;10.632;2023-04-24T14:09:51;0.40;;;0.40;;
56329;SDS011;42236;48.058;10.632;2023-04-24T14:12:46;0.50;;;0.38;;
56329;SDS011;42236;48.058;10.632;2023-04-24T14:15:31;0.25;;;0.25;;
56329;SDS011;42236;48.058;10.632;2023-04-24T14:18:17;0.50;;;0.50;;
56329;SDS011;42236;48.058;10.632;2023-04-24T14:21:04;1.10;;;0.40;;
56329;SDS011;42236;48.058;10.632;2023-04-24T14:23:50;1.65;;;0.40;;
56329;SDS011;42236;48.058;10.632;2023-04-24T14:26:36;0.60;;;0.40;;
56329;SDS011;42236;48.058;10.632;2023-04-24T14:29:21;0.35;;;0.30;;
56329;SDS011;42236;48.058;10.632;2023-04-24T14:32:07;0.40;;;0.30;;
56329;SDS011;42236;48.058;10.632;2023-04-24T14:34:54;0.90;;;0.35;;
56329;SDS011;42236;48.058;10.632;2023-04-24T14:37:40;1.75;;;0.40;;
56329;SDS011;42236;48.058;10.632;2023-04-24T14:40:28;0.82;;;0.52;;
56329;SDS011;42236;48.058;10.632;2023-04-24T14:43:14;0.40;;;0.40;;
56329;SDS011;42236;48.058;10.632;2023-04-24T14:46:00;0.98;;;0.50;;
56329;SDS011;42236;48.058;10.632;2023-04-24T14:48:45;1.95;;;0.30;;
56329;SDS011;42236;48.058;10.632;2023-04-24T14:51:31;0.30;;;0.30;;
56329;SDS011;42236;48.058;10.632;2023-04-24T14:54:17;0.35;;;0.30;;
56329;SDS011;42236;48.058;10.632;2023-04-24T14:57:02;0.75;;;0.50;;
56329;SDS011;42236;48.058;10.632;2023-04-24T14:59:48;0.43;;;0.43;;
56329;SDS011;42236;48.058;10.632;2023-04-24T15:02:34;0.80;;;0.65;;
56329;SDS011;42236;48.058;10.632;2023-04-24T15:05:22;1.65;;;0.40;;
56329;SDS011;42236;48.058;10.632;2023-04-24T15:08:07;0.68;;;0.40;;
56329;SDS011;42236;48.058;10.632;2023-04-24T15:10:53;2.28;;;0.40;;
56329;SDS011;42236;48.058;10.632;2023-04-24T15:13:39;0.43;;;0.40;;
56329;SDS011;42236;48.058;10.632;2023-04-24T15:16:25;0.77;;;0.40;;
56329;SDS011;42236;48.058;10.632;2023-04-24T15:19:10;0.32;;;0.30;;
56329;SDS011;42236;48.058;10.632;2023-04-24T15:21:56;1.05;;;0.40;;
56329;SDS011;42236;48.058;10.632;2023-04-24T15:24:42;1.65;;;0.40;;
56329;SDS011;42236;48.058;10.632;2023-04-24T15:27:38;0.20;;;0.20;;
56329;SDS011;42236;48.058;10.632;2023-04-24T15:30:30;1.75;;;0.30;;
56329;SDS011;42236;48.058;10.632;2023-04-24T15:33:16;0.50;;;0.40;;
56329;SDS011;42236;48.058;10.632;2023-04-24T15:36:02;0.60;;;0.37;;
56329;SDS011;42236;48.058;10.632;2023-04-24T15:38:48;0.68;;;0.68;;
56329;SDS011;42236;48.058;10.632;2023-04-24T15:41:34;1.90;;;0.32;;
56329;SDS011;42236;48.058;10.632;2023-04-24T15:44:21;1.65;;;0.40;;
56329;SDS011;42236;48.058;10.632;2023-04-24T15:47:07;0.60;;;0.57;;
56329;SDS011;42236;48.058;10.632;2023-04-24T15:49:52;2.90;;;1.07;;
56329;SDS011;42236;48.058;10.632;2023-04-24T15:52:39;0.40;;;0.40;;
56329;SDS011;42236;48.058;10.632;2023-04-24T15:55:24;5.47;;;0.95;;
56329;SDS011;42236;48.058;10.632;2023-04-24T15:58:10;6.88;;;0.70;;
56329;SDS011;42236;48.058;10.632;2023-04-24T16:00:56;1.65;;;0.40;;
56329;SDS011;42236;48.058;10.632;2023-04-24T16:03:41;0.60;;;0.40;;
56329;SDS011;42236;48.058;10.632;2023-04-24T16:06:27;0.82;;;0.22;;
56329;SDS011;42236;48.058;10.632;2023-04-24T16:09:13;0.40;;;0.40;;
56329;SDS011;42236;48.058;10.632;2023-04-24T16:11:59;0.30;;;0.30;;
56329;SDS011;42236;48.058;10.632;2023-04-24T16:14:45;0.40;;;0.30;;
56329;SDS011;42236;48.058;10.632;2023-04-24T16:17:31;3.05;;;0.40;;
56329;SDS011;42236;48.058;10.632;2023-04-24T16:20:16;3.70;;;0.40;;
56329;SDS011;42236;48.058;10.632;2023-04-24T16:23:02;0.88;;;0.30;;
56329;SDS011;42236;48.058;10.632;2023-04-24T16:25:48;1.55;;;0.35;;
56329;SDS011;42236;48.058;10.632;2023-04-24T16:28:34;0.93;;;0.32;;
56329;SDS011;42236;48.058;10.632;2023-04-24T16:31:20;0.35;;;0.30;;